Time;durP1;ratioP1;P1;durP2;ratioP2;P2;SDS_P1;SDS_P2;PMS_P1;PMS_P2;Temp;Humidity;BMP_temperature;BMP_pressure;BME280_temperature;BME280_humidity;BME280_pressure;Samples;Min_cycle;Max_cycle;Signal;HPM_P1;HPM_P2
2022/03/16 00:02:20;;;;;;;12.23;5.13;;;;;;;19.71;51.81;101021.66;5045832;28;20195;-62
2022/03/16 00:04:51;;;;;;;10.53;4.90;;;;;;;19.71;51.87;101021.66;5052004;28;20195;-62
2022/03/16 00:07:17;;;;;;;12.20;4.90;;;;;;;19.71;52.34;101018.78;5051893;28;20431;-62
2022/03/16 00:09:42;;;;;;;9.37;4.03;;;;;;;19.79;51.82;101016.94;5046525;28;20612;-62
2022/03/16 00:12:09;;;;;;;9.10;4.30;;;;;;;19.68;51.61;101019.56;5047620;28;20183;-61
2022/03/16 00:14:35;;;;;;;8.27;4.60;;;;;;;19.57;51.51;101012.69;5050705;28;20210;-60
2022/03/16 00:17:01;;;;;;;7.20;3.70;;;;;;;19.47;51.60;101024.72;5037064;28;20504;-60
2022/03/16 00:19:26;;;;;;;12.63;4.17;;;;;;;19.45;51.61;101009.09;5050670;28;20901;-60
2022/03/16 00:21:52;;;;;;;7.20;4.17;;;;;;;19.44;51.71;101004.59;5051455;28;20175;-60
2022/03/16 00:24:17;;;;;;;8.43;4.00;;;;;;;19.43;51.59;101015.22;5051345;28;20199;-60
2022/03/16 00:26:43;;;;;;;9.93;4.90;;;;;;;19.42;51.89;101016.41;5045252;28;20184;-60
2022/03/16 00:29:08;;;;;;;6.40;3.50;;;;;;;19.43;51.74;101020.09;5040880;28;20188;-60
2022/03/16 00:31:34;;;;;;;12.67;3.90;;;;;;;19.40;51.78;101026.56;5040985;28;20176;-60
2022/03/16 00:34:00;;;;;;;7.70;3.70;;;;;;;19.41;51.80;101029.06;5041503;28;20180;-60
2022/03/16 00:36:25;;;;;;;6.13;3.50;;;;;;;19.38;51.92;101035.53;5041309;28;21011;-60
2022/03/16 00:38:51;;;;;;;7.40;4.20;;;;;;;19.35;51.88;101029.69;5047058;28;20426;-60
2022/03/16 00:41:16;;;;;;;11.20;4.17;;;;;;;19.34;51.89;101034.63;5038487;28;20176;-60
2022/03/16 00:43:42;;;;;;;8.57;3.70;;;;;;;19.32;51.89;101027.59;5029680;28;20173;-60
2022/03/16 00:46:08;;;;;;;8.70;4.50;;;;;;;19.33;51.81;101034.97;5014609;28;20840;-60
2022/03/16 00:48:33;;;;;;;7.67;4.10;;;;;;;19.31;51.91;101032.47;5029487;28;20420;-59
2022/03/16 00:50:59;;;;;;;6.80;3.70;;;;;;;19.29;51.98;101028.31;5029554;28;20183;-59
2022/03/16 00:53:24;;;;;;;10.23;4.27;;;;;;;19.30;51.91;101033.69;5038132;28;20625;-59
2022/03/16 00:55:49;;;;;;;6.80;3.23;;;;;;;19.27;52.14;101022.94;5051046;28;20207;-59
2022/03/16 00:58:15;;;;;;;16.93;3.60;;;;;;;19.27;51.95;101019.28;5050848;28;20628;-59
2022/03/16 01:00:40;;;;;;;11.80;3.90;;;;;;;19.28;52.14;101021.78;5050686;28;20188;-59
2022/03/16 01:03:06;;;;;;;5.70;3.53;;;;;;;19.26;51.95;101015.56;5050870;28;20595;-59
2022/03/16 01:05:31;;;;;;;5.00;2.97;;;;;;;19.24;52.00;101012.25;5051597;28;20179;-59
2022/03/16 01:07:57;;;;;;;8.00;4.20;;;;;;;19.24;52.00;101012.25;5050668;28;20179;-59
2022/03/16 01:10:22;;;;;;;7.47;3.40;;;;;;;19.24;51.83;101003.66;5050431;28;20589;-59
2022/03/16 01:12:48;;;;;;;5.93;2.93;;;;;;;19.22;52.04;101008.91;5050701;28;20171;-59
2022/03/16 01:15:13;;;;;;;8.77;3.80;;;;;;;19.22;52.20;101003.19;5049763;28;20624;-59
2022/03/16 01:17:39;;;;;;;5.60;2.87;;;;;;;19.22;51.92;100997.47;5047236;28;20647;-59
2022/03/16 01:20:05;;;;;;;8.73;3.50;;;;;;;19.20;51.88;100991.25;5030504;28;20184;-59
2022/03/16 01:22:31;;;;;;;5.20;3.13;;;;;;;19.19;51.92;100992.47;5030912;28;20189;-59
2022/03/16 01:24:56;;;;;;;5.27;3.27;;;;;;;19.20;52.02;100999.84;5030663;28;20411;-59
2022/03/16 01:27:21;;;;;;;4.87;2.93;;;;;;;19.20;52.09;100999.00;5030578;28;20176;-59
2022/03/16 01:29:47;;;;;;;5.07;2.90;;;;;;;19.19;52.19;100998.19;5029999;28;20168;-59
2022/03/16 01:32:12;;;;;;;7.50;3.13;;;;;;;19.21;52.05;100994.97;5043908;28;20234;-59
2022/03/16 01:34:38;;;;;;;6.60;3.40;;;;;;;19.24;52.00;100994.25;5049529;28;20210;-59
2022/03/16 01:37:04;;;;;;;4.83;2.80;;;;;;;19.21;52.46;100987.19;5049600;28;20176;-59
2022/03/16 01:39:30;;;;;;;7.20;2.83;;;;;;;19.21;51.92;100994.97;5050189;28;20172;-59
2022/03/16 01:41:56;;;;;;;6.00;3.23;;;;;;;19.18;52.19;100982.22;5050346;28;20524;-59
2022/03/16 01:44:48;;;;;;;5.70;3.30;;;;;;;19.18;52.17;100978.50;5050153;28;20517;-59
2022/03/16 01:47:14;;;;;;;10.77;3.40;;;;;;;19.21;52.21;100972.88;5050372;28;20160;-59
2022/03/16 01:49:39;;;;;;;5.87;3.30;;;;;;;19.21;51.92;100978.59;5047568;28;20431;-59
2022/03/16 01:52:05;;;;;;;7.10;3.10;;;;;;;19.19;52.21;100981.00;5049347;28;20959;-59
2022/03/16 01:54:31;;;;;;;6.90;3.50;;;;;;;19.20;51.91;100976.09;5031534;28;20198;-59
2022/03/16 01:56:56;;;;;;;6.43;2.77;;;;;;;19.17;52.33;100971.94;5032042;28;20430;-59
2022/03/16 01:59:22;;;;;;;6.43;3.60;;;;;;;19.18;51.78;100976.50;5049667;28;20515;-59
2022/03/16 02:01:47;;;;;;;7.50;3.13;;;;;;;19.16;51.81;100963.75;5047296;28;20643;-59
2022/03/16 02:04:13;;;;;;;8.40;3.10;;;;;;;19.16;52.00;100973.16;5048793;28;20666;-59
2022/03/16 02:06:38;;;;;;;5.60;3.20;;;;;;;19.18;51.67;100973.63;5050018;28;20183;-59
2022/03/16 02:09:04;;;;;;;5.20;3.03;;;;;;;19.20;51.66;100965.50;5049110;28;20172;-60
2022/03/16 02:11:29;;;;;;;6.47;3.10;;;;;;;19.18;51.84;100972.78;5043180;28;20176;-60
2022/03/16 02:13:54;;;;;;;6.90;3.07;;;;;;;19.16;51.70;100967.41;5030136;28;20175;-59
2022/03/16 02:16:20;;;;;;;4.67;2.87;;;;;;;19.16;51.88;100970.28;5029646;28;20200;-59
2022/03/16 02:18:45;;;;;;;7.20;2.77;;;;;;;19.17;51.83;100971.13;5029678;28;20183;-59
2022/03/16 02:21:11;;;;;;;5.97;3.37;;;;;;;19.15;51.81;100977.22;5029810;28;20662;-59
2022/03/16 02:23:36;;;;;;;5.50;3.20;;;;;;;19.15;51.80;100971.50;5029853;28;20172;-59
2022/03/16 02:26:02;;;;;;;7.13;3.50;;;;;;;19.15;52.10;100974.34;5029669;28;20177;-59
2022/03/16 02:28:27;;;;;;;4.20;2.77;;;;;;;19.15;51.90;100971.50;5029467;28;20176;-59
2022/03/16 02:30:53;;;;;;;6.23;3.30;;;;;;;19.14;51.90;100969.84;5032503;28;20181;-59
2022/03/16 02:33:19;;;;;;;5.40;2.73;;;;;;;19.15;51.74;100967.78;5049455;28;20172;-59
2022/03/16 02:35:45;;;;;;;5.73;2.70;;;;;;;19.17;51.60;100977.66;5049543;28;20196;-59
2022/03/16 02:38:11;;;;;;;4.40;2.53;;;;;;;19.13;51.73;100981.66;5041702;28;20188;-59
2022/03/16 02:40:37;;;;;;;6.77;3.50;;;;;;;19.12;51.72;100980.81;5029129;28;20419;-59
2022/03/16 02:43:03;;;;;;;5.73;2.67;;;;;;;19.13;51.82;100993.94;5029451;28;20673;-59
2022/03/16 02:45:28;;;;;;;3.70;2.70;;;;;;;19.10;51.93;100988.94;5029549;28;20422;-59
2022/03/16 02:47:53;;;;;;;6.37;2.97;;;;;;;19.10;51.88;100991.81;5028776;28;20172;-59
2022/03/16 02:50:19;;;;;;;5.53;2.67;;;;;;;19.11;51.77;100996.31;5029382;28;20176;-59
2022/03/16 02:52:45;;;;;;;6.00;3.43;;;;;;;19.12;51.41;100991.44;5029592;28;20186;-59
2022/03/16 02:55:10;;;;;;;8.63;2.97;;;;;;;19.10;51.89;100997.53;5029478;28;20208;-59
2022/03/16 02:57:36;;;;;;;4.87;2.93;;;;;;;19.09;51.79;100998.72;5029362;28;20180;-59
2022/03/16 03:00:05;;;;;;;5.80;2.87;;;;;;;19.10;51.59;101000.38;5029172;28;20180;-59
2022/03/16 03:02:30;;;;;;;4.30;2.87;;;;;;;19.09;51.90;101001.59;5041564;28;20654;-59
2022/03/16 03:04:56;;;;;;;4.97;2.37;;;;;;;19.11;51.46;100996.31;5029513;28;20427;-59
2022/03/16 03:07:21;;;;;;;4.57;2.80;;;;;;;19.12;51.57;101000.03;5028988;28;20180;-59
2022/03/16 03:09:47;;;;;;;5.80;2.40;;;;;;;19.11;51.47;100999.19;5044070;28;20250;-59
2022/03/16 03:12:12;;;;;;;6.13;2.70;;;;;;;19.11;51.86;101001.22;5029132;28;20542;-59
2022/03/16 03:14:38;;;;;;;4.60;2.70;;;;;;;19.12;51.46;101003.69;5029329;28;20200;-59
2022/03/16 03:17:03;;;;;;;7.27;3.00;;;;;;;19.08;51.69;101007.69;5028978;28;20164;-59
2022/03/16 03:19:29;;;;;;;3.97;2.47;;;;;;;19.06;51.76;101002.31;5029439;28;20176;-59
2022/03/16 03:21:54;;;;;;;4.83;3.40;;;;;;;19.09;51.74;101004.47;5029213;28;20663;-59
2022/03/16 03:24:20;;;;;;;7.10;3.60;;;;;;;19.10;51.58;100999.53;5029150;28;20168;-59
2022/03/16 03:26:45;;;;;;;10.77;3.10;;;;;;;19.08;51.63;101002.81;5028926;28;20177;-59
2022/03/16 03:29:11;;;;;;;5.33;3.10;;;;;;;19.13;51.39;100999.66;5034691;28;20226;-59
2022/03/16 03:31:36;;;;;;;5.70;2.70;;;;;;;19.09;51.69;101001.59;5049028;28;20242;-59
2022/03/16 03:34:02;;;;;;;5.47;2.10;;;;;;;19.09;51.55;101007.31;5049008;28;20182;-59
2022/03/16 03:36:28;;;;;;;8.00;3.13;;;;;;;19.12;51.48;101009.44;5048601;28;20180;-59
2022/03/16 03:38:53;;;;;;;4.73;3.00;;;;;;;19.10;51.45;101014.69;5046323;28;20270;-59
2022/03/16 03:41:18;;;;;;;4.17;2.50;;;;;;;19.12;51.44;101011.47;5048504;28;20631;-59
2022/03/16 03:43:44;;;;;;;7.33;2.87;;;;;;;19.08;51.59;101010.53;5045670;28;20168;-59
2022/03/16 03:46:10;;;;;;;5.43;2.50;;;;;;;19.09;51.64;101015.91;5049246;28;20164;-59
2022/03/16 03:48:35;;;;;;;4.33;2.37;;;;;;;19.05;51.29;101014.97;5048916;28;20158;-59
2022/03/16 03:51:01;;;;;;;5.13;2.77;;;;;;;19.10;51.24;101011.84;5048461;28;20176;-59
2022/03/16 03:53:26;;;;;;;6.53;2.83;;;;;;;19.09;51.52;101013.03;5026848;28;20175;-59
2022/03/16 03:55:51;;;;;;;3.80;2.73;;;;;;;19.10;51.42;101017.56;5043615;28;20188;-59
2022/03/16 03:58:17;;;;;;;4.33;2.60;;;;;;;19.09;51.40;101017.91;5032065;28;20179;-59
2022/03/16 04:00:42;;;;;;;4.23;3.00;;;;;;;19.09;51.41;101013.03;5032462;28;20168;-59
2022/03/16 04:03:08;;;;;;;4.13;2.70;;;;;;;19.09;51.40;101017.91;5052589;28;20171;-59
2022/03/16 04:05:33;;;;;;;5.00;3.10;;;;;;;19.07;51.77;101018.28;5052230;28;20168;-60
2022/03/16 04:07:59;;;;;;;4.40;2.90;;;;;;;19.06;51.69;101025.22;5048975;28;20169;-59
2022/03/16 04:10:24;;;;;;;4.77;2.70;;;;;;;19.05;51.48;101029.28;5032206;28;20286;-59
2022/03/16 04:12:50;;;;;;;5.10;2.47;;;;;;;19.10;51.49;101016.72;5032317;28;20180;-59
2022/03/16 04:15:15;;;;;;;3.63;2.63;;;;;;;19.09;51.37;101020.78;5032129;28;20188;-59
2022/03/16 04:17:41;;;;;;;4.00;2.67;;;;;;;19.09;51.54;101018.78;5048703;28;20643;-59
2022/03/16 04:20:07;;;;;;;5.87;2.70;;;;;;;19.08;51.47;101013.41;5051846;28;20237;-59
2022/03/16 04:22:32;;;;;;;3.30;2.30;;;;;;;19.09;51.52;101018.78;5051531;28;20187;-59
2022/03/16 04:24:58;;;;;;;4.70;2.70;;;;;;;19.07;51.38;101017.47;5052034;28;20410;-60
2022/03/16 04:27:23;;;;;;;4.20;2.53;;;;;;;19.06;51.38;101015.81;5051540;28;20186;-59
2022/03/16 04:29:49;;;;;;;3.90;2.40;;;;;;;19.08;51.27;101017.13;5051517;28;20518;-59
2022/03/16 04:32:14;;;;;;;4.13;2.80;;;;;;;19.06;51.60;101015.81;5051684;28;20179;-59
2022/03/16 04:34:40;;;;;;;4.87;3.03;;;;;;;19.03;51.41;101005.09;5050530;28;20243;-59
2022/03/16 04:37:05;;;;;;;3.50;2.47;;;;;;;19.05;51.21;101012.09;5031304;28;20219;-59
2022/03/16 04:39:31;;;;;;;5.00;2.53;;;;;;;19.07;51.27;101009.69;5031618;28;20188;-59
2022/03/16 04:41:57;;;;;;;4.10;2.60;;;;;;;19.07;51.57;101006.84;5031666;28;20231;-59
2022/03/16 04:44:22;;;;;;;3.27;2.23;;;;;;;19.06;51.39;101005.19;5031836;28;20184;-59
2022/03/16 04:46:47;;;;;;;4.40;2.80;;;;;;;19.05;51.52;101006.38;5031535;28;20172;-59
2022/03/16 04:49:13;;;;;;;4.10;2.37;;;;;;;19.04;51.55;101013.31;5031060;28;20499;-60
2022/03/16 04:51:40;;;;;;;4.80;2.30;;;;;;;19.08;51.34;101005.66;5031604;28;20172;-59
2022/03/16 04:54:06;;;;;;;3.90;2.70;;;;;;;19.06;51.24;101004.38;5031618;28;20180;-60
2022/03/16 04:56:31;;;;;;;4.03;2.30;;;;;;;19.05;51.26;101002.69;5031368;28;21496;-59
2022/03/16 04:58:56;;;;;;;5.33;2.90;;;;;;;19.07;51.37;101003.97;5030980;28;20529;-59
2022/03/16 05:01:22;;;;;;;4.50;2.60;;;;;;;19.03;51.47;101008.78;5040893;28;20187;-59
2022/03/16 05:03:48;;;;;;;4.23;2.73;;;;;;;19.04;51.42;101007.59;5051376;28;20202;-60
2022/03/16 05:06:13;;;;;;;4.57;2.47;;;;;;;19.06;51.20;101004.38;5051092;28;20179;-59
2022/03/16 05:08:38;;;;;;;5.17;2.70;;;;;;;19.08;51.26;101005.66;5050240;28;20174;-59
2022/03/16 05:11:05;;;;;;;6.70;2.50;;;;;;;19.05;51.77;101003.53;5048874;28;20219;-59
2022/03/16 05:13:30;;;;;;;3.40;2.33;;;;;;;19.09;51.31;101010.19;5050841;28;20268;-59
2022/03/16 05:15:56;;;;;;;3.80;2.60;;;;;;;19.08;51.12;101011.38;5051025;28;20529;-59
2022/03/16 05:18:23;;;;;;;4.70;2.57;;;;;;;19.06;51.31;101012.94;5050758;28;20186;-59
2022/03/16 05:20:48;;;;;;;4.90;2.83;;;;;;;19.05;51.38;101019.84;5050426;28;20186;-59
2022/03/16 05:23:14;;;;;;;3.87;2.53;;;;;;;19.06;51.46;101015.81;5050722;28;20410;-59
2022/03/16 05:25:39;;;;;;;4.00;2.63;;;;;;;19.01;51.64;101019.75;5051224;28;20152;-59
2022/03/16 05:28:05;;;;;;;5.13;2.67;;;;;;;19.03;51.38;101027.97;5050390;28;20179;-59
2022/03/16 05:30:30;;;;;;;4.67;2.80;;;;;;;19.05;51.49;101032.13;5050296;28;20171;-59
2022/03/16 05:32:59;;;;;;;4.20;2.40;;;;;;;19.00;51.54;101032.41;5049841;28;20199;-59
2022/03/16 05:35:25;;;;;;;5.00;2.70;;;;;;;19.03;51.53;101033.72;5050072;28;20286;-59
2022/03/16 05:37:50;;;;;;;4.93;2.77;;;;;;;19.02;51.51;101030.00;5050332;28;20847;-59
2022/03/16 05:40:16;;;;;;;4.40;2.50;;;;;;;19.03;51.54;101028.81;5050363;28;20176;-59
2022/03/16 05:42:41;;;;;;;6.00;2.70;;;;;;;19.01;51.49;101031.22;5039136;28;20283;-59
2022/03/16 05:45:07;;;;;;;4.50;2.67;;;;;;;19.03;51.31;101033.72;5032722;28;20176;-59
2022/03/16 05:47:33;;;;;;;5.17;2.93;;;;;;;19.03;51.46;101027.97;5049562;28;20262;-59
2022/03/16 05:49:58;;;;;;;4.60;2.53;;;;;;;19.03;51.33;101031.69;5036488;28;20176;-59
2022/03/16 05:52:24;;;;;;;4.20;2.10;;;;;;;19.04;51.70;101024.75;5029426;28;20259;-59
2022/03/16 05:54:54;;;;;;;4.23;2.60;;;;;;;19.05;51.20;101020.69;5030350;28;20209;-59
2022/03/16 05:57:19;;;;;;;3.43;2.17;;;;;;;19.05;51.30;101022.72;5029908;28;20766;-59
2022/03/16 05:59:45;;;;;;;4.23;2.53;;;;;;;19.01;51.24;101019.75;5029944;28;20413;-59
2022/03/16 06:02:11;;;;;;;4.87;2.20;;;;;;;19.01;51.25;101031.22;5043241;28;20405;-59
2022/03/16 06:04:37;;;;;;;5.40;2.43;;;;;;;19.05;51.16;101035.00;5049283;28;20573;-59
2022/03/16 06:07:03;;;;;;;3.80;2.47;;;;;;;19.03;51.20;101034.56;5050056;28;20195;-59
2022/03/16 06:09:29;;;;;;;3.90;2.53;;;;;;;19.04;51.22;101033.34;5049252;28;20469;-59
2022/03/16 06:11:54;;;;;;;5.00;2.30;;;;;;;19.02;51.24;101038.59;5049921;28;20422;-59
2022/03/16 06:14:20;;;;;;;4.10;2.53;;;;;;;19.04;51.45;101038.22;5049552;28;20172;-59
2022/03/16 06:16:47;;;;;;;4.83;2.33;;;;;;;19.05;51.06;101043.59;5050127;28;20230;-59
2022/03/16 06:19:12;;;;;;;3.70;2.37;;;;;;;19.02;51.35;101047.16;5048747;28;20552;-59
2022/03/16 06:21:38;;;;;;;3.90;2.10;;;;;;;19.03;51.41;101048.84;5049494;28;20411;-59
2022/03/16 06:24:03;;;;;;;4.73;2.60;;;;;;;19.01;51.27;101054.09;5049676;28;20183;-59
2022/03/16 06:26:29;;;;;;;3.00;2.10;;;;;;;19.05;51.06;101060.75;5050246;28;20167;-59
2022/03/16 06:28:54;;;;;;;3.57;2.40;;;;;;;19.04;51.05;101046.81;5049104;28;20198;-59
2022/03/16 06:31:20;;;;;;;3.33;2.30;;;;;;;19.06;51.22;101055.88;5045812;28;20183;-59
2022/03/16 06:33:49;;;;;;;3.50;2.30;;;;;;;19.05;51.41;101059.91;5046506;28;20180;-59
2022/03/16 06:36:14;;;;;;;4.90;2.70;;;;;;;19.08;51.13;101059.19;5047342;28;20663;-59
2022/03/16 06:38:40;;;;;;;4.93;2.50;;;;;;;19.05;51.33;101059.91;5045258;28;20469;-59
2022/03/16 06:41:05;;;;;;;3.90;2.70;;;;;;;19.05;51.58;101057.91;5044671;28;20721;-59
2022/03/16 06:43:31;;;;;;;3.30;2.30;;;;;;;19.05;51.42;101066.47;5047722;28;20189;-59
2022/03/16 06:45:56;;;;;;;3.87;2.20;;;;;;;19.04;51.31;101064.81;5019872;28;20175;-59
2022/03/16 06:48:23;;;;;;;4.53;2.20;;;;;;;19.06;51.19;101071.00;5039515;28;20253;-59
2022/03/16 06:50:49;;;;;;;5.93;2.97;;;;;;;19.05;51.15;101075.06;5037976;28;20207;-59
2022/03/16 06:53:15;;;;;;;3.73;2.53;;;;;;;19.04;51.23;101082.00;5038570;28;20414;-59
2022/03/16 06:55:40;;;;;;;4.37;2.60;;;;;;;19.04;51.27;101076.28;5039483;28;20458;-59
2022/03/16 06:58:06;;;;;;;4.63;2.60;;;;;;;19.02;51.35;101090.09;5039650;28;20180;-59
2022/03/16 07:00:31;;;;;;;3.07;2.40;;;;;;;19.03;51.05;101086.06;5038286;28;20199;-59
2022/03/16 07:02:59;;;;;;;4.30;2.37;;;;;;;19.05;51.54;101091.41;5049271;28;20183;-59
2022/03/16 07:05:35;;;;;;;4.23;2.80;;;;;;;19.06;51.14;101090.22;5043092;28;20184;-60
2022/03/16 07:08:02;;;;;;;5.00;2.20;;;;;;;19.02;51.08;101095.81;5038016;28;20501;-59
2022/03/16 07:10:28;;;;;;;3.63;2.30;;;;;;;19.00;51.28;101095.38;5039143;28;20466;-59
2022/03/16 07:12:54;;;;;;;4.30;2.57;;;;;;;19.03;51.25;101088.09;5046277;28;20795;-59
2022/03/16 07:15:19;;;;;;;4.37;2.27;;;;;;;19.02;51.21;101095.81;5049356;28;20192;-59
2022/03/16 07:17:45;;;;;;;4.60;2.70;;;;;;;19.02;51.15;101090.09;5048773;28;20168;-59
2022/03/16 07:20:11;;;;;;;4.83;2.47;;;;;;;19.03;51.14;101091.78;5048981;28;20581;-59
2022/03/16 07:22:36;;;;;;;4.70;2.60;;;;;;;19.01;51.23;101094.16;5049264;28;20262;-59
2022/03/16 07:25:03;;;;;;;5.33;2.87;;;;;;;19.02;51.27;101101.53;5047670;28;20212;-59
2022/03/16 07:27:28;;;;;;;4.63;2.60;;;;;;;19.04;51.33;101098.31;5044580;28;20191;-60
2022/03/16 07:29:54;;;;;;;5.87;2.90;;;;;;;19.03;51.34;101103.25;5047120;28;20430;-59
2022/03/16 07:32:19;;;;;;;4.27;2.80;;;;;;;19.00;51.19;101098.22;5042256;28;20858;-61
2022/03/16 07:34:46;;;;;;;26.50;17.97;;;;;;;18.75;51.21;101102.38;5048364;28;20191;-61
2022/03/16 07:37:11;;;;;;;38.60;26.17;;;;;;;18.77;51.62;101110.59;5051539;28;20190;-62
2022/03/16 07:39:37;;;;;;;46.50;31.73;;;;;;;18.95;52.81;101107.06;5050983;28;20465;-62
2022/03/16 07:42:02;;;;;;;49.43;31.23;;;;;;;19.36;52.67;101112.38;5051469;28;20233;-61
2022/03/16 07:44:28;;;;;;;49.90;31.07;;;;;;;19.44;51.84;101102.78;5052847;28;20179;-61
2022/03/16 07:46:53;;;;;;;44.87;29.83;;;;;;;19.53;52.36;101105.47;5051278;28;20180;-61
2022/03/16 07:49:19;;;;;;;46.80;30.30;;;;;;;19.55;52.26;101112.50;5047093;28;20199;-62
2022/03/16 07:51:44;;;;;;;47.30;27.97;;;;;;;19.69;51.75;101110.03;5051900;28;20232;-61
2022/03/16 07:54:09;;;;;;;38.37;26.67;;;;;;;19.74;51.07;101108.91;5052030;28;20172;-61
2022/03/16 07:56:35;;;;;;;40.67;25.57;;;;;;;19.59;51.32;101107.69;5050019;28;20203;-62
2022/03/16 07:59:01;;;;;;;38.00;25.73;;;;;;;19.62;50.64;101109.81;5051784;28;20184;-62
2022/03/16 08:01:28;;;;;;;37.53;23.80;;;;;;;19.55;51.72;101109.63;5051706;28;20180;-61
2022/03/16 08:03:54;;;;;;;34.90;24.67;;;;;;;19.56;51.86;101104.75;5050269;28;21028;-61
2022/03/16 08:06:19;;;;;;;33.07;22.27;;;;;;;19.58;51.96;101111.78;5032441;28;20443;-61
2022/03/16 08:08:45;;;;;;;32.23;22.63;;;;;;;19.55;52.04;101103.91;5042443;28;20449;-62
2022/03/16 08:11:10;;;;;;;29.93;20.00;;;;;;;19.54;52.05;101099.38;5049158;28;20235;-62
2022/03/16 08:13:39;;;;;;;30.50;20.07;;;;;;;19.66;51.64;101090.69;5049907;28;20175;-62
2022/03/16 08:16:04;;;;;;;31.63;18.90;;;;;;;19.64;51.39;101090.25;5051091;28;20248;-62
2022/03/16 08:18:30;;;;;;;26.00;18.50;;;;;;;19.67;51.26;101080.06;5032673;28;20849;-61
2022/03/16 08:20:56;;;;;;;28.93;17.80;;;;;;;19.64;50.35;101078.78;5050704;28;20274;-61
2022/03/16 08:23:21;;;;;;;23.27;16.67;;;;;;;19.56;51.22;101076.91;5051920;28;20175;-61
2022/03/16 08:25:47;;;;;;;29.97;17.57;;;;;;;19.75;51.41;101073.31;5050757;28;20167;-59
2022/03/16 08:28:13;;;;;;;23.33;16.20;;;;;;;19.70;52.27;101077.28;5051552;28;20175;-60
2022/03/16 08:30:39;;;;;;;24.20;15.37;;;;;;;19.73;52.76;101075.72;5046430;28;20549;-61
2022/03/16 08:33:05;;;;;;;24.30;16.47;;;;;;;19.68;51.07;101068.25;5050875;28;20426;-62
2022/03/16 08:35:30;;;;;;;22.10;14.63;;;;;;;19.69;51.55;101075.63;5051308;28;20206;-62
2022/03/16 08:37:55;;;;;;;21.17;13.57;;;;;;;19.70;51.58;101083.03;5050602;28;20183;-59
2022/03/16 08:40:21;;;;;;;17.90;11.43;;;;;;;19.66;51.33;101087.81;5047774;28;20551;-60
2022/03/16 08:42:47;;;;;;;20.50;13.50;;;;;;;19.55;50.92;101081.00;5042663;28;20180;-59
2022/03/16 08:45:12;;;;;;;21.77;13.70;;;;;;;19.52;50.68;101081.72;5031458;28;20189;-59
2022/03/16 08:47:38;;;;;;;20.27;13.40;;;;;;;19.55;50.23;101083.00;5030474;28;20707;-59
2022/03/16 08:50:04;;;;;;;16.37;11.03;;;;;;;19.52;50.25;101089.50;5031193;28;20176;-59
2022/03/16 08:52:29;;;;;;;16.70;11.33;;;;;;;19.45;50.55;101086.41;5046838;28;20252;-59
2022/03/16 08:54:55;;;;;;;17.53;11.40;;;;;;;19.39;50.58;101093.63;5050614;28;20462;-60
2022/03/16 08:57:23;;;;;;;20.83;11.10;;;;;;;19.38;50.86;101097.69;5048356;28;20184;-60
2022/03/16 08:59:49;;;;;;;18.57;11.37;;;;;;;19.37;50.42;101090.31;5050941;28;20631;-60
2022/03/16 09:02:14;;;;;;;20.67;12.30;;;;;;;19.36;50.60;101092.34;5049341;28;20492;-60
2022/03/16 09:04:40;;;;;;;20.80;11.73;;;;;;;19.34;51.25;101080.44;5047328;28;20203;-59
2022/03/16 09:07:05;;;;;;;23.53;11.83;;;;;;;19.32;51.61;101074.22;5050376;28;20174;-59
2022/03/16 09:09:31;;;;;;;22.20;9.43;;;;;;;19.29;51.79;101072.09;5050553;28;20216;-59
2022/03/16 09:11:56;;;;;;;24.00;10.53;;;;;;;19.29;51.80;101066.38;5051224;28;20156;-59
2022/03/16 09:14:22;;;;;;;20.00;10.10;;;;;;;19.30;51.64;101065.19;5032953;28;20176;-59
2022/03/16 09:16:47;;;;;;;15.10;9.07;;;;;;;19.31;51.96;101063.16;5045004;28;20187;-58
2022/03/16 09:19:20;;;;;;;16.67;9.27;;;;;;;19.29;51.92;101060.66;5030663;28;20196;-58
2022/03/16 09:21:49;;;;;;;20.87;9.07;;;;;;;19.29;52.00;101060.66;5030999;28;20172;-58
2022/03/16 09:24:15;;;;;;;17.93;9.10;;;;;;;19.30;52.11;101064.31;5031291;28;20518;-58
2022/03/16 09:26:40;;;;;;;16.70;9.60;;;;;;;19.28;52.23;101063.88;5033527;28;21012;-58
2022/03/16 09:29:09;;;;;;;13.20;8.30;;;;;;;19.29;52.29;101059.81;5030336;28;20442;-60
2022/03/16 09:31:38;;;;;;;15.80;8.27;;;;;;;19.28;52.07;101059.00;5039552;28;20180;-58
2022/03/16 09:34:05;;;;;;;11.77;7.60;;;;;;;19.28;52.15;101044.69;5050619;28;20425;-58
2022/03/16 09:36:32;;;;;;;14.80;7.20;;;;;;;19.27;52.40;101054.44;5050154;28;20552;-58
2022/03/16 09:38:58;;;;;;;18.23;8.40;;;;;;;19.28;52.40;101052.44;5049569;28;20422;-58
2022/03/16 09:41:23;;;;;;;14.33;7.03;;;;;;;19.30;52.50;101061.47;5050250;28;20981;-58
2022/03/16 09:43:49;;;;;;;17.67;7.27;;;;;;;19.30;52.10;101048.00;5050591;28;20179;-58
2022/03/16 09:46:15;;;;;;;12.43;6.93;;;;;;;19.29;52.16;101048.34;5048897;28;20156;-58
2022/03/16 09:48:41;;;;;;;12.90;6.93;;;;;;;19.29;52.29;101054.09;5049488;28;20507;-58
2022/03/16 09:51:07;;;;;;;14.03;6.33;;;;;;;19.28;52.10;101044.69;5047329;28;20421;-58
2022/03/16 09:53:33;;;;;;;14.60;7.20;;;;;;;19.26;52.28;101049.13;5050352;28;20627;-58
2022/03/16 09:55:58;;;;;;;13.03;6.87;;;;;;;19.27;52.13;101057.31;5049383;28;20461;-58
2022/03/16 09:58:23;;;;;;;9.77;5.60;;;;;;;19.27;52.43;101056.50;5049658;28;20267;-58
2022/03/16 10:00:49;;;;;;;10.80;5.67;;;;;;;19.28;52.27;101059.00;5049653;28;20172;-58
2022/03/16 10:03:15;;;;;;;9.37;6.00;;;;;;;19.26;52.24;101049.94;5031138;28;20227;-59
2022/03/16 10:05:41;;;;;;;11.43;6.10;;;;;;;19.24;52.41;101058.06;5049787;28;20414;-58
2022/03/16 10:08:08;;;;;;;13.07;6.27;;;;;;;19.24;52.23;101052.34;5050010;28;20665;-58
2022/03/16 10:13:21;;;;;;;11.73;5.50;;;;;;;19.23;52.52;101047.81;5049795;28;20417;-59
2022/03/16 10:15:48;;;;;;;6.97;4.57;;;;;;;19.22;52.33;101043.25;5049284;28;20804;-59
2022/03/16 10:18:18;;;;;;;11.67;5.47;;;;;;;19.24;52.57;101040.03;5048614;28;20426;-59
2022/03/16 10:20:43;;;;;;;10.00;5.17;;;;;;;19.23;52.61;101044.09;5049115;28;20422;-59
2022/03/16 10:23:20;;;;;;;14.00;5.40;;;;;;;19.23;52.60;101044.94;5042905;28;20422;-58
2022/03/16 10:25:51;;;;;;;7.77;5.20;;;;;;;19.23;52.51;101044.09;5012126;28;20651;-60
2022/03/16 10:28:16;;;;;;;8.60;5.20;;;;;;;19.22;52.49;101037.53;5029253;28;20426;-59
2022/03/16 10:31:02;;;;;;;8.80;5.03;;;;;;;19.22;52.38;101043.25;5031466;28;20411;-58
2022/03/16 10:33:30;;;;;;;10.97;5.03;;;;;;;19.20;52.53;101051.38;5049669;28;20156;-58
2022/03/16 10:36:05;;;;;;;7.20;5.30;;;;;;;19.19;52.60;101048.88;5049484;28;20476;-59
2022/03/16 10:38:41;;;;;;;10.10;5.30;;;;;;;19.20;52.64;101044.81;5049712;28;20409;-59
2022/03/16 10:46:50;;;;;;;9.20;5.13;;;;;;;19.18;52.55;101042.31;5034405;28;20830;-58
2022/03/16 10:49:20;;;;;;;7.77;5.20;;;;;;;19.19;52.64;101037.41;5048802;28;20497;-58
2022/03/16 10:51:46;;;;;;;9.37;4.80;;;;;;;19.19;52.38;101034.56;5049367;28;20187;-58
2022/03/16 10:54:14;;;;;;;6.80;4.17;;;;;;;19.16;52.63;101036.13;5015334;28;20422;-58
2022/03/16 10:56:40;;;;;;;6.90;4.80;;;;;;;19.17;52.83;101037.78;5049727;28;20470;-58
2022/03/16 10:59:05;;;;;;;8.23;4.67;;;;;;;19.18;52.76;101030.03;5048938;28;20893;-58
2022/03/16 11:01:32;;;;;;;11.57;4.87;;;;;;;19.17;52.60;101023.47;5031207;28;20179;-58
2022/03/16 11:04:01;;;;;;;7.17;3.97;;;;;;;19.15;52.80;101020.16;5022358;28;20645;-58
2022/03/16 11:06:26;;;;;;;8.90;4.50;;;;;;;19.16;52.91;101012.41;5031605;28;20497;-58
2022/03/16 11:08:53;;;;;;;8.23;4.70;;;;;;;19.15;52.74;101017.28;5048798;28;20507;-58
2022/03/16 11:14:03;;;;;;;10.43;4.50;;;;;;;19.17;52.50;101017.75;5053118;28;20402;-58
2022/03/16 11:16:30;;;;;;;9.60;3.97;;;;;;;19.14;52.61;101012.78;5049359;28;20455;-58
2022/03/16 11:18:57;;;;;;;9.10;4.07;;;;;;;19.16;52.61;101013.22;5032865;28;20191;-58
2022/03/16 11:21:27;;;;;;;6.87;4.70;;;;;;;19.16;52.61;101004.63;5015703;28;20427;-58
2022/03/16 11:26:51;;;;;;;12.43;5.00;;;;;;;19.14;52.71;101021.34;5035411;28;20410;-58
2022/03/16 11:29:34;;;;;;;7.50;4.63;;;;;;;19.13;52.62;101018.84;5032322;28;20762;-58
2022/03/16 11:32:10;;;;;;;8.13;4.17;;;;;;;19.16;52.47;101016.09;5044386;28;20434;-58